Flight Track Log - Related Links

Times and Time Zones

All times are in EST time to prevent confusion due to time zone crossing. See the EJA929 flight status page for this flight to view local times or setup timezone preferences in your user account.

Time Position Orientation Groundspeed Altitude Reporting Facility
EST Latitude Longitude Course Direction KTS MPH feet Rate Location/Type
Sun 04:27:45 PM 39.1000 -94.6000 193° South 173 199 1,900  Level Kansas City TRACON
Sun 04:27:51 PM 39.1000 -94.6000 193° South 185 213 2,200 3,904 Climbing Kansas City TRACON
Sun 04:29:08 PM 39.0575 -94.6808 236° Southwest 230 265 7,300 3,799 Climbing Kansas City Center
Sun 04:30:10 PM 39.0008 -94.7294 214° Southwest 258 297 11,000 3,512 Climbing Kansas City Center
Sun 04:31:11 PM 38.9494 -94.8181 233° Southwest 282 325 14,500 3,242 Climbing Kansas City Center
Sun 04:32:14 PM 38.9094 -94.9028 239° Southwest 288 331 17,700 1,680 Climbing Kansas City Center
Sun 04:33:00 PM 38.9498 -94.8451 193° South  Level FlightAware Approximate
Sun 04:33:16 PM 38.8617 -95.0028 238° Southwest 353 406 18,000  Level Kansas City Center
Sun 04:34:17 PM 38.7961 -95.1381 238° Southwest 395 455 18,000 49 Level Kansas City Center
Sun 04:35:18 PM 38.7397 -95.2581 239° Southwest 405 466 18,100 50 Climbing Kansas City Center
Sun 04:36:18 PM 38.6731 -95.3944 238° Southwest 403 464 18,100  Level Kansas City Center
Sun 04:37:23 PM 38.6144 -95.5161 238° Southwest 416 479 18,100 -48 Level Kansas City Center
Sun 04:38:23 PM 38.5519 -95.6447 238° Southwest 385 443 18,000 -50 Descending Kansas City Center
Sun 04:39:24 PM 38.4994 -95.7525 238° Southwest 374 430 18,000 48 Level Kansas City Center
Sun 04:40:27 PM 38.4442 -95.8631 237° Southwest 383 441 18,100  Climbing Kansas City Center
Sun 04:41:28 PM 38.3803 -95.9925 238° Southwest 386 444 18,000 -48 Descending Kansas City Center
Sun 04:42:32 PM 38.3247 -96.1033 237° Southwest 387 445 18,000  Level Kansas City Center
Sun 04:43:33 PM 38.2603 -96.2328 238° Southwest 387 445 18,000  Level Kansas City Center
Sun 04:44:34 PM 38.2053 -96.3450 238° Southwest 390 449 18,000 -492 Level Kansas City Center
Sun 04:45:35 PM 38.1414 -96.4711 237° Southwest 387 445 17,000 -1,296 Descending Kansas City Center
Sun 04:46:39 PM 38.0844 -96.5828 237° Southwest 379 436 15,300 -1,670 Descending Kansas City Center
Sun 04:47:12 PM 38.0481 -96.6519 236° Southwest 377 434 14,300 -1,759 Descending Kansas City Center
Sun 04:47:37 PM 38.0272 -96.6953 239° Southwest 377 434 13,600 -1,500 Descending Kansas City Center
Sun 04:47:40 PM 38.0269 -96.6950 142° Southeast 379 436 13,600 -1,636 Level Kansas City Center
Sun 04:48:43 PM 37.9639 -96.8147 236° Southwest 341 392 11,800 -1,403 Descending Kansas City Center
Sun 04:49:44 PM 37.9294 -96.8897 240° Southwest 301 346 10,700 -983 Descending Kansas City Center
Sun 04:50:39 PM 37.8886 -96.9650 236° Southwest 246 283 9,900 -787 Descending Kansas City Center
Sun 04:50:45 PM 37.8906 -96.9658 341° North 263 303 9,900 -2,151 Level Kansas City Center
Sun 04:51:32 PM 37.8647 -97.0403 246° West 248 285 8,000 -2,032 Descending Kansas City Center
Sun 04:51:47 PM 37.8631 -97.0467 252° West 251 289 7,800 -2,182 Descending Kansas City Center
Sun 04:52:27 PM 37.8433 -97.1208 251° West 259 298 6,000 -2,516 Descending Kansas City Center
Sun 04:52:49 PM 37.8358 -97.1494 252° West 256 295 5,200 -1,791 Descending Kansas City Center
Sun 04:53:34 PM 37.8172 -97.2150 250° West 247 284 4,000 -1,125 Descending Kansas City Center
Sun 04:53:53 PM 37.8125 -97.2297 248° West 250 288 4,000 -787 Level Kansas City Center
Sun 04:54:35 PM 37.7936 -97.2956 250° West 244 281 3,200 -1,000 Descending Kansas City Center
Sun 04:54:53 PM 37.7864 -97.3125 242° Southwest 249 287 3,000 -197 Descending Kansas City Center
Sun 04:55:36 PM 37.7614 -97.3747 243° Southwest 242 278 3,000  Level Kansas City Center
Sun 04:55:54 PM 37.7514 -97.3800 203° Southwest 244 281 3,000 -400 Level Kansas City Center
Sun 04:56:36 PM 37.7211 -97.3914 197° South 125 144 2,600 -469 Descending Kansas City Center
Sun 04:56:58 PM 37.7139 -97.3942 197° South 175 201 2,500 -581 Descending Kansas City Center
Sun 04:57:38 PM 37.6889 -97.4069 202° Southwest 109 125 2,000 -689 Descending Kansas City Center
Sun 04:57:59 PM 37.6819 -97.4081 187° South 141 162 1,800 -293 Descending Kansas City Center
Sun 04:59:00 PM 37.6436 -97.4231 197° South 134 154 1,600 -197 Descending Kansas City Center
Sun 05:00:00 PM 37.6333 -97.4167 202° Southwest  Level FlightAware Approximate

Login

Don't have an account? Register now (free) for customized features, flight alerts, and more!